sensor_id;sensor_type;location;lat;lon;timestamp;P1;durP1;ratioP1;P2;durP2;ratioP2
17181;SDS011;8706;48.254;16.422;2022-12-19T11:19:32;3.90;;;3.60;;
17181;SDS011;8706;48.254;16.422;2022-12-19T11:22:02;4.80;;;4.27;;
17181;SDS011;8706;48.254;16.422;2022-12-19T11:24:33;4.30;;;3.90;;
17181;SDS011;8706;48.254;16.422;2022-12-19T11:27:01;4.10;;;3.70;;
17181;SDS011;8706;48.254;16.422;2022-12-19T11:29:37;5.60;;;4.07;;
17181;SDS011;8706;48.254;16.422;2022-12-19T11:32:21;4.57;;;3.90;;
17181;SDS011;8706;48.254;16.422;2022-12-19T11:34:52;4.73;;;4.33;;
17181;SDS011;8706;48.254;16.422;2022-12-19T11:37:26;4.17;;;3.77;;
17181;SDS011;8706;48.254;16.422;2022-12-19T11:40:02;4.80;;;4.30;;
17181;SDS011;8706;48.254;16.422;2022-12-19T11:42:33;4.77;;;4.37;;
17181;SDS011;8706;48.254;16.422;2022-12-19T11:45:06;5.43;;;4.10;;
17181;SDS011;8706;48.254;16.422;2022-12-19T11:47:39;4.97;;;4.17;;
17181;SDS011;8706;48.254;16.422;2022-12-19T11:50:12;4.50;;;4.10;;
17181;SDS011;8706;48.254;16.422;2022-12-19T11:52:45;4.70;;;4.20;;
17181;SDS011;8706;48.254;16.422;2022-12-19T11:55:22;5.17;;;4.53;;
17181;SDS011;8706;48.254;16.422;2022-12-19T11:57:51;4.53;;;4.10;;
17181;SDS011;8706;48.254;16.422;2022-12-19T12:00:20;5.67;;;4.60;;
17181;SDS011;8706;48.254;16.422;2022-12-19T12:03:02;4.83;;;4.37;;
17181;SDS011;8706;48.254;16.422;2022-12-19T12:05:47;4.67;;;4.27;;
17181;SDS011;8706;48.254;16.422;2022-12-19T12:11:22;4.83;;;4.27;;
17181;SDS011;8706;48.254;16.422;2022-12-19T12:13:58;5.73;;;5.13;;
17181;SDS011;8706;48.254;16.422;2022-12-19T12:16:40;5.30;;;4.80;;
17181;SDS011;8706;48.254;16.422;2022-12-19T12:19:21;5.20;;;4.70;;
17181;SDS011;8706;48.254;16.422;2022-12-19T12:22:02;4.80;;;4.37;;
17181;SDS011;8706;48.254;16.422;2022-12-19T12:24:40;5.13;;;4.67;;
17181;SDS011;8706;48.254;16.422;2022-12-19T12:27:17;5.13;;;4.63;;
17181;SDS011;8706;48.254;16.422;2022-12-19T12:29:55;5.33;;;4.83;;
17181;SDS011;8706;48.254;16.422;2022-12-19T12:32:32;4.43;;;4.03;;
17181;SDS011;8706;48.254;16.422;2022-12-19T12:35:16;4.80;;;4.13;;
17181;SDS011;8706;48.254;16.422;2022-12-19T12:37:54;4.93;;;4.43;;
17181;SDS011;8706;48.254;16.422;2022-12-19T12:40:35;4.87;;;4.37;;
17181;SDS011;8706;48.254;16.422;2022-12-19T12:43:15;5.17;;;4.77;;
17181;SDS011;8706;48.254;16.422;2022-12-19T12:45:49;4.50;;;4.10;;
17181;SDS011;8706;48.254;16.422;2022-12-19T12:48:20;4.57;;;4.13;;
17181;SDS011;8706;48.254;16.422;2022-12-19T12:50:51;5.10;;;4.57;;
17181;SDS011;8706;48.254;16.422;2022-12-19T12:53:22;5.17;;;4.67;;
17181;SDS011;8706;48.254;16.422;2022-12-19T12:55:52;5.13;;;4.63;;
17181;SDS011;8706;48.254;16.422;2022-12-19T13:01:10;4.63;;;4.20;;
17181;SDS011;8706;48.254;16.422;2022-12-19T13:03:41;7.23;;;4.90;;
17181;SDS011;8706;48.254;16.422;2022-12-19T13:06:20;4.67;;;4.20;;
17181;SDS011;8706;48.254;16.422;2022-12-19T13:08:54;5.13;;;4.63;;
17181;SDS011;8706;48.254;16.422;2022-12-19T13:11:35;5.60;;;4.93;;
17181;SDS011;8706;48.254;16.422;2022-12-19T13:14:41;5.47;;;4.70;;
17181;SDS011;8706;48.254;16.422;2022-12-19T13:17:11;5.33;;;4.83;;
17181;SDS011;8706;48.254;16.422;2022-12-19T13:19:51;5.37;;;4.87;;
17181;SDS011;8706;48.254;16.422;2022-12-19T13:25:26;5.03;;;4.43;;
17181;SDS011;8706;48.254;16.422;2022-12-19T13:28:14;4.60;;;4.20;;
17181;SDS011;8706;48.254;16.422;2022-12-19T13:33:43;4.50;;;4.10;;
17181;SDS011;8706;48.254;16.422;2022-12-19T13:39:15;4.17;;;3.77;;
17181;SDS011;8706;48.254;16.422;2022-12-19T13:41:59;5.00;;;4.40;;
17181;SDS011;8706;48.254;16.422;2022-12-19T13:44:49;5.50;;;5.00;;
17181;SDS011;8706;48.254;16.422;2022-12-19T13:47:18;5.13;;;4.60;;
17181;SDS011;8706;48.254;16.422;2022-12-19T13:49:45;5.17;;;4.67;;
17181;SDS011;8706;48.254;16.422;2022-12-19T13:52:14;6.00;;;5.40;;
17181;SDS011;8706;48.254;16.422;2022-12-19T13:54:46;6.03;;;5.07;;
17181;SDS011;8706;48.254;16.422;2022-12-19T13:57:20;5.87;;;5.10;;
17181;SDS011;8706;48.254;16.422;2022-12-19T13:59:49;6.00;;;5.40;;
17181;SDS011;8706;48.254;16.422;2022-12-19T14:02:21;5.67;;;5.17;;
17181;SDS011;8706;48.254;16.422;2022-12-19T14:04:52;6.27;;;5.67;;
17181;SDS011;8706;48.254;16.422;2022-12-19T14:07:25;5.97;;;5.37;;
17181;SDS011;8706;48.254;16.422;2022-12-19T14:09:57;8.20;;;5.83;;
17181;SDS011;8706;48.254;16.422;2022-12-19T14:12:26;6.30;;;5.70;;
17181;SDS011;8706;48.254;16.422;2022-12-19T14:15:20;6.53;;;5.90;;
17181;SDS011;8706;48.254;16.422;2022-12-19T14:17:49;6.63;;;5.77;;
17181;SDS011;8706;48.254;16.422;2022-12-19T14:20:18;7.50;;;6.30;;
17181;SDS011;8706;48.254;16.422;2022-12-19T14:22:48;6.60;;;5.90;;
17181;SDS011;8706;48.254;16.422;2022-12-19T14:25:15;6.63;;;6.03;;
17181;SDS011;8706;48.254;16.422;2022-12-19T14:27:44;7.00;;;6.40;;
17181;SDS011;8706;48.254;16.422;2022-12-19T14:30:16;8.23;;;6.53;;
17181;SDS011;8706;48.254;16.422;2022-12-19T14:32:46;7.57;;;6.87;;
17181;SDS011;8706;48.254;16.422;2022-12-19T14:35:17;7.33;;;6.63;;
17181;SDS011;8706;48.254;16.422;2022-12-19T14:37:46;7.70;;;7.00;;
17181;SDS011;8706;48.254;16.422;2022-12-19T14:40:20;8.00;;;7.07;;
17181;SDS011;8706;48.254;16.422;2022-12-19T14:42:51;7.87;;;7.07;;
17181;SDS011;8706;48.254;16.422;2022-12-19T14:45:42;8.73;;;7.83;;
17181;SDS011;8706;48.254;16.422;2022-12-19T14:51:02;8.27;;;7.47;;
17181;SDS011;8706;48.254;16.422;2022-12-19T14:53:31;8.20;;;7.40;;
17181;SDS011;8706;48.254;16.422;2022-12-19T14:56:02;7.63;;;6.87;;
17181;SDS011;8706;48.254;16.422;2022-12-19T14:58:34;8.10;;;7.30;;
17181;SDS011;8706;48.254;16.422;2022-12-19T15:01:03;9.03;;;8.23;;
17181;SDS011;8706;48.254;16.422;2022-12-19T15:03:44;8.10;;;7.30;;
17181;SDS011;8706;48.254;16.422;2022-12-19T15:06:16;9.00;;;8.10;;
17181;SDS011;8706;48.254;16.422;2022-12-19T15:08:44;8.90;;;8.00;;
17181;SDS011;8706;48.254;16.422;2022-12-19T15:11:20;8.60;;;7.77;;
17181;SDS011;8706;48.254;16.422;2022-12-19T15:14:10;8.67;;;7.87;;
17181;SDS011;8706;48.254;16.422;2022-12-19T15:16:37;9.30;;;8.03;;
17181;SDS011;8706;48.254;16.422;2022-12-19T15:19:09;8.40;;;7.50;;
17181;SDS011;8706;48.254;16.422;2022-12-19T15:21:38;8.97;;;7.93;;
17181;SDS011;8706;48.254;16.422;2022-12-19T15:24:05;9.10;;;8.23;;
17181;SDS011;8706;48.254;16.422;2022-12-19T15:26:34;9.57;;;8.67;;
17181;SDS011;8706;48.254;16.422;2022-12-19T15:29:12;9.47;;;8.47;;
17181;SDS011;8706;48.254;16.422;2022-12-19T15:31:40;8.97;;;8.03;;
17181;SDS011;8706;48.254;16.422;2022-12-19T15:34:14;8.70;;;7.87;;
17181;SDS011;8706;48.254;16.422;2022-12-19T15:36:46;9.40;;;8.50;;
17181;SDS011;8706;48.254;16.422;2022-12-19T15:39:13;9.70;;;8.80;;
17181;SDS011;8706;48.254;16.422;2022-12-19T15:41:40;9.20;;;8.30;;
17181;SDS011;8706;48.254;16.422;2022-12-19T15:44:12;9.03;;;8.13;;
17181;SDS011;8706;48.254;16.422;2022-12-19T15:46:44;9.33;;;8.33;;
17181;SDS011;8706;48.254;16.422;2022-12-19T15:49:12;9.80;;;8.80;;
17181;SDS011;8706;48.254;16.422;2022-12-19T15:51:40;9.57;;;8.53;;
17181;SDS011;8706;48.254;16.422;2022-12-19T15:54:07;8.97;;;8.17;;
17181;SDS011;8706;48.254;16.422;2022-12-19T15:56:36;9.43;;;8.53;;
17181;SDS011;8706;48.254;16.422;2022-12-19T15:59:04;9.33;;;8.43;;
17181;SDS011;8706;48.254;16.422;2022-12-19T16:01:42;9.57;;;8.57;;
17181;SDS011;8706;48.254;16.422;2022-12-19T16:04:09;9.50;;;8.60;;
17181;SDS011;8706;48.254;16.422;2022-12-19T16:06:38;10.23;;;9.23;;
17181;SDS011;8706;48.254;16.422;2022-12-19T16:09:05;9.47;;;8.57;;
17181;SDS011;8706;48.254;16.422;2022-12-19T16:11:42;9.37;;;8.47;;
17181;SDS011;8706;48.254;16.422;2022-12-19T16:14:09;10.17;;;9.17;;
17181;SDS011;8706;48.254;16.422;2022-12-19T16:16:37;10.20;;;9.20;;
17181;SDS011;8706;48.254;16.422;2022-12-19T16:19:10;9.67;;;8.77;;
17181;SDS011;8706;48.254;16.422;2022-12-19T16:21:58;9.90;;;9.00;;
17181;SDS011;8706;48.254;16.422;2022-12-19T16:24:25;9.67;;;8.77;;
17181;SDS011;8706;48.254;16.422;2022-12-19T16:26:53;10.23;;;9.13;;
17181;SDS011;8706;48.254;16.422;2022-12-19T16:29:21;10.00;;;9.10;;
17181;SDS011;8706;48.254;16.422;2022-12-19T16:31:50;9.73;;;8.77;;
17181;SDS011;8706;48.254;16.422;2022-12-19T16:34:20;9.67;;;8.67;;
17181;SDS011;8706;48.254;16.422;2022-12-19T16:36:48;10.33;;;9.33;;
17181;SDS011;8706;48.254;16.422;2022-12-19T16:39:16;11.27;;;9.53;;
17181;SDS011;8706;48.254;16.422;2022-12-19T16:41:43;9.33;;;8.43;;
17181;SDS011;8706;48.254;16.422;2022-12-19T16:44:12;10.47;;;9.47;;
17181;SDS011;8706;48.254;16.422;2022-12-19T16:46:42;10.63;;;9.63;;
17181;SDS011;8706;48.254;16.422;2022-12-19T16:49:10;10.27;;;9.27;;
17181;SDS011;8706;48.254;16.422;2022-12-19T16:51:41;10.70;;;9.70;;
17181;SDS011;8706;48.254;16.422;2022-12-19T16:54:10;11.10;;;10.00;;
17181;SDS011;8706;48.254;16.422;2022-12-19T16:56:38;9.67;;;8.77;;
17181;SDS011;8706;48.254;16.422;2022-12-19T16:59:09;10.03;;;9.07;;
17181;SDS011;8706;48.254;16.422;2022-12-19T17:01:40;9.73;;;8.73;;
17181;SDS011;8706;48.254;16.422;2022-12-19T17:04:10;10.43;;;9.30;;
17181;SDS011;8706;48.254;16.422;2022-12-19T17:06:38;10.10;;;9.10;;
17181;SDS011;8706;48.254;16.422;2022-12-19T17:09:07;10.93;;;9.87;;
17181;SDS011;8706;48.254;16.422;2022-12-19T17:11:38;10.63;;;9.63;;
17181;SDS011;8706;48.254;16.422;2022-12-19T17:14:06;10.33;;;9.27;;
17181;SDS011;8706;48.254;16.422;2022-12-19T17:16:38;10.67;;;9.57;;
17181;SDS011;8706;48.254;16.422;2022-12-19T17:19:05;10.27;;;9.27;;
17181;SDS011;8706;48.254;16.422;2022-12-19T17:21:36;10.93;;;9.90;;
17181;SDS011;8706;48.254;16.422;2022-12-19T17:24:03;10.77;;;9.77;;
17181;SDS011;8706;48.254;16.422;2022-12-19T17:26:36;10.73;;;9.73;;
17181;SDS011;8706;48.254;16.422;2022-12-19T17:29:03;10.17;;;9.17;;
17181;SDS011;8706;48.254;16.422;2022-12-19T17:31:30;10.70;;;9.60;;
17181;SDS011;8706;48.254;16.422;2022-12-19T17:34:02;9.90;;;9.00;;
17181;SDS011;8706;48.254;16.422;2022-12-19T17:36:32;10.57;;;9.00;;
17181;SDS011;8706;48.254;16.422;2022-12-19T17:38:59;11.50;;;10.40;;
17181;SDS011;8706;48.254;16.422;2022-12-19T17:41:26;10.23;;;9.23;;
17181;SDS011;8706;48.254;16.422;2022-12-19T17:43:54;10.27;;;9.27;;
17181;SDS011;8706;48.254;16.422;2022-12-19T17:46:22;10.97;;;9.80;;
17181;SDS011;8706;48.254;16.422;2022-12-19T17:48:50;11.73;;;10.57;;
17181;SDS011;8706;48.254;16.422;2022-12-19T17:51:18;10.43;;;9.43;;
17181;SDS011;8706;48.254;16.422;2022-12-19T17:53:47;10.83;;;9.73;;
17181;SDS011;8706;48.254;16.422;2022-12-19T17:56:15;10.47;;;9.40;;
17181;SDS011;8706;48.254;16.422;2022-12-19T17:58:44;10.63;;;9.53;;
17181;SDS011;8706;48.254;16.422;2022-12-19T18:01:17;10.60;;;9.60;;
17181;SDS011;8706;48.254;16.422;2022-12-19T18:03:44;10.40;;;9.33;;
17181;SDS011;8706;48.254;16.422;2022-12-19T18:06:12;11.20;;;10.17;;
17181;SDS011;8706;48.254;16.422;2022-12-19T18:08:40;10.93;;;9.83;;
17181;SDS011;8706;48.254;16.422;2022-12-19T18:11:10;11.90;;;10.73;;
17181;SDS011;8706;48.254;16.422;2022-12-19T18:13:43;11.67;;;10.47;;
17181;SDS011;8706;48.254;16.422;2022-12-19T18:16:12;10.93;;;9.87;;
17181;SDS011;8706;48.254;16.422;2022-12-19T18:18:41;11.37;;;10.20;;
17181;SDS011;8706;48.254;16.422;2022-12-19T18:21:09;11.47;;;10.27;;
17181;SDS011;8706;48.254;16.422;2022-12-19T18:23:40;11.27;;;10.07;;
17181;SDS011;8706;48.254;16.422;2022-12-19T18:26:08;11.23;;;10.03;;
17181;SDS011;8706;48.254;16.422;2022-12-19T18:28:36;10.90;;;9.73;;
17181;SDS011;8706;48.254;16.422;2022-12-19T18:31:04;11.37;;;10.27;;
17181;SDS011;8706;48.254;16.422;2022-12-19T18:33:39;11.47;;;10.27;;
17181;SDS011;8706;48.254;16.422;2022-12-19T18:36:12;12.30;;;11.00;;
17181;SDS011;8706;48.254;16.422;2022-12-19T18:38:43;11.77;;;10.57;;
17181;SDS011;8706;48.254;16.422;2022-12-19T18:41:10;11.60;;;10.47;;
17181;SDS011;8706;48.254;16.422;2022-12-19T18:43:37;12.00;;;10.80;;
17181;SDS011;8706;48.254;16.422;2022-12-19T18:46:04;11.73;;;10.53;;
17181;SDS011;8706;48.254;16.422;2022-12-19T18:48:32;11.07;;;10.00;;
17181;SDS011;8706;48.254;16.422;2022-12-19T18:51:03;12.03;;;10.83;;
17181;SDS011;8706;48.254;16.422;2022-12-19T18:53:31;12.73;;;11.53;;
17181;SDS011;8706;48.254;16.422;2022-12-19T18:55:59;12.20;;;11.00;;
17181;SDS011;8706;48.254;16.422;2022-12-19T18:58:27;11.83;;;10.60;;
17181;SDS011;8706;48.254;16.422;2022-12-19T19:00:54;11.50;;;10.40;;
17181;SDS011;8706;48.254;16.422;2022-12-19T19:03:24;12.30;;;11.07;;
17181;SDS011;8706;48.254;16.422;2022-12-19T19:05:53;12.60;;;11.30;;
17181;SDS011;8706;48.254;16.422;2022-12-19T19:08:23;12.27;;;11.07;;
17181;SDS011;8706;48.254;16.422;2022-12-19T19:10:54;11.50;;;10.43;;
17181;SDS011;8706;48.254;16.422;2022-12-19T19:13:23;12.00;;;10.80;;
17181;SDS011;8706;48.254;16.422;2022-12-19T19:15:52;12.27;;;11.07;;
17181;SDS011;8706;48.254;16.422;2022-12-19T19:18:21;12.40;;;11.20;;
17181;SDS011;8706;48.254;16.422;2022-12-19T19:20:50;11.43;;;10.33;;
17181;SDS011;8706;48.254;16.422;2022-12-19T19:23:20;12.43;;;11.13;;
17181;SDS011;8706;48.254;16.422;2022-12-19T19:25:52;12.37;;;11.00;;
17181;SDS011;8706;48.254;16.422;2022-12-19T19:28:19;11.60;;;10.50;;
17181;SDS011;8706;48.254;16.422;2022-12-19T19:30:46;12.73;;;11.43;;
17181;SDS011;8706;48.254;16.422;2022-12-19T19:33:14;12.43;;;11.17;;
17181;SDS011;8706;48.254;16.422;2022-12-19T19:35:45;12.30;;;11.07;;
17181;SDS011;8706;48.254;16.422;2022-12-19T19:38:16;12.07;;;10.70;;
17181;SDS011;8706;48.254;16.422;2022-12-19T19:40:46;12.87;;;11.57;;
17181;SDS011;8706;48.254;16.422;2022-12-19T19:43:14;12.23;;;11.03;;
17181;SDS011;8706;48.254;16.422;2022-12-19T19:45:42;12.87;;;11.57;;
17181;SDS011;8706;48.254;16.422;2022-12-19T19:48:10;12.73;;;11.50;;
17181;SDS011;8706;48.254;16.422;2022-12-19T19:50:38;12.23;;;11.03;;
17181;SDS011;8706;48.254;16.422;2022-12-19T19:53:06;12.60;;;11.30;;
17181;SDS011;8706;48.254;16.422;2022-12-19T19:55:33;12.10;;;10.90;;
17181;SDS011;8706;48.254;16.422;2022-12-19T19:58:02;12.77;;;11.47;;
17181;SDS011;8706;48.254;16.422;2022-12-19T20:00:29;12.73;;;11.53;;
17181;SDS011;8706;48.254;16.422;2022-12-19T20:02:57;12.43;;;11.23;;
17181;SDS011;8706;48.254;16.422;2022-12-19T20:05:25;12.37;;;11.10;;
17181;SDS011;8706;48.254;16.422;2022-12-19T20:07:52;12.63;;;11.33;;
17181;SDS011;8706;48.254;16.422;2022-12-19T20:10:18;12.40;;;11.20;;
17181;SDS011;8706;48.254;16.422;2022-12-19T20:12:46;12.53;;;11.23;;
17181;SDS011;8706;48.254;16.422;2022-12-19T20:15:14;12.57;;;11.27;;
17181;SDS011;8706;48.254;16.422;2022-12-19T20:17:41;12.40;;;11.20;;
17181;SDS011;8706;48.254;16.422;2022-12-19T20:20:09;12.93;;;11.63;;
17181;SDS011;8706;48.254;16.422;2022-12-19T20:22:37;13.93;;;12.43;;
17181;SDS011;8706;48.254;16.422;2022-12-19T20:25:04;13.83;;;12.43;;
17181;SDS011;8706;48.254;16.422;2022-12-19T20:27:32;12.00;;;10.80;;
17181;SDS011;8706;48.254;16.422;2022-12-19T20:29:59;12.53;;;11.33;;
17181;SDS011;8706;48.254;16.422;2022-12-19T20:32:27;12.07;;;10.87;;
17181;SDS011;8706;48.254;16.422;2022-12-19T20:34:55;13.07;;;11.77;;
17181;SDS011;8706;48.254;16.422;2022-12-19T20:37:22;13.07;;;11.77;;
17181;SDS011;8706;48.254;16.422;2022-12-19T20:39:50;13.20;;;11.90;;
17181;SDS011;8706;48.254;16.422;2022-12-19T20:42:17;13.07;;;11.70;;
17181;SDS011;8706;48.254;16.422;2022-12-19T20:44:44;13.43;;;12.03;;
17181;SDS011;8706;48.254;16.422;2022-12-19T20:47:12;12.57;;;11.33;;
17181;SDS011;8706;48.254;16.422;2022-12-19T20:49:40;11.80;;;10.60;;
17181;SDS011;8706;48.254;16.422;2022-12-19T20:52:08;13.93;;;12.53;;
17181;SDS011;8706;48.254;16.422;2022-12-19T20:54:35;13.43;;;12.13;;
17181;SDS011;8706;48.254;16.422;2022-12-19T20:57:02;12.80;;;11.50;;
17181;SDS011;8706;48.254;16.422;2022-12-19T20:59:29;13.00;;;11.70;;
17181;SDS011;8706;48.254;16.422;2022-12-19T21:01:56;13.23;;;11.83;;
17181;SDS011;8706;48.254;16.422;2022-12-19T21:04:24;13.00;;;11.60;;
17181;SDS011;8706;48.254;16.422;2022-12-19T21:06:53;13.63;;;12.23;;
17181;SDS011;8706;48.254;16.422;2022-12-19T21:09:20;13.17;;;11.87;;
17181;SDS011;8706;48.254;16.422;2022-12-19T21:11:47;13.50;;;12.13;;
17181;SDS011;8706;48.254;16.422;2022-12-19T21:14:14;13.47;;;12.07;;
17181;SDS011;8706;48.254;16.422;2022-12-19T21:16:41;12.27;;;11.07;;
17181;SDS011;8706;48.254;16.422;2022-12-19T21:19:08;13.10;;;11.90;;
17181;SDS011;8706;48.254;16.422;2022-12-19T21:21:35;13.10;;;11.87;;
17181;SDS011;8706;48.254;16.422;2022-12-19T21:24:03;13.17;;;11.87;;
17181;SDS011;8706;48.254;16.422;2022-12-19T21:26:31;13.53;;;12.13;;
17181;SDS011;8706;48.254;16.422;2022-12-19T21:28:58;13.50;;;12.20;;
17181;SDS011;8706;48.254;16.422;2022-12-19T21:31:26;13.70;;;12.30;;
17181;SDS011;8706;48.254;16.422;2022-12-19T21:33:55;13.80;;;12.40;;
17181;SDS011;8706;48.254;16.422;2022-12-19T21:36:23;13.60;;;12.20;;
17181;SDS011;8706;48.254;16.422;2022-12-19T21:38:52;13.90;;;12.60;;
17181;SDS011;8706;48.254;16.422;2022-12-19T21:41:21;13.80;;;12.40;;
17181;SDS011;8706;48.254;16.422;2022-12-19T21:43:49;14.90;;;13.20;;
17181;SDS011;8706;48.254;16.422;2022-12-19T21:46:17;14.63;;;13.13;;
17181;SDS011;8706;48.254;16.422;2022-12-19T21:48:46;15.00;;;13.50;;
17181;SDS011;8706;48.254;16.422;2022-12-19T21:51:16;14.13;;;12.83;;
17181;SDS011;8706;48.254;16.422;2022-12-19T21:53:43;14.37;;;12.90;;
17181;SDS011;8706;48.254;16.422;2022-12-19T21:56:17;13.90;;;12.40;;
17181;SDS011;8706;48.254;16.422;2022-12-19T21:58:49;14.27;;;12.87;;
17181;SDS011;8706;48.254;16.422;2022-12-19T22:01:17;14.37;;;12.87;;
17181;SDS011;8706;48.254;16.422;2022-12-19T22:03:44;14.20;;;12.80;;
17181;SDS011;8706;48.254;16.422;2022-12-19T22:06:12;15.07;;;13.47;;
17181;SDS011;8706;48.254;16.422;2022-12-19T22:08:42;15.17;;;13.57;;
17181;SDS011;8706;48.254;16.422;2022-12-19T22:11:12;13.93;;;12.53;;
17181;SDS011;8706;48.254;16.422;2022-12-19T22:13:42;14.50;;;13.00;;
17181;SDS011;8706;48.254;16.422;2022-12-19T22:16:10;14.83;;;12.97;;
17181;SDS011;8706;48.254;16.422;2022-12-19T22:18:37;14.60;;;13.10;;
17181;SDS011;8706;48.254;16.422;2022-12-19T22:21:05;14.93;;;13.43;;
17181;SDS011;8706;48.254;16.422;2022-12-19T22:23:33;14.40;;;12.90;;
17181;SDS011;8706;48.254;16.422;2022-12-19T22:26:01;14.97;;;13.13;;
17181;SDS011;8706;48.254;16.422;2022-12-19T22:28:30;15.40;;;13.77;;
17181;SDS011;8706;48.254;16.422;2022-12-19T22:30:59;15.57;;;13.97;;
17181;SDS011;8706;48.254;16.422;2022-12-19T22:33:26;14.77;;;13.37;;
17181;SDS011;8706;48.254;16.422;2022-12-19T22:35:54;15.67;;;13.70;;
17181;SDS011;8706;48.254;16.422;2022-12-19T22:38:21;15.70;;;14.00;;
17181;SDS011;8706;48.254;16.422;2022-12-19T22:40:47;14.90;;;13.37;;
17181;SDS011;8706;48.254;16.422;2022-12-19T22:43:14;15.17;;;13.57;;
17181;SDS011;8706;48.254;16.422;2022-12-19T22:45:41;14.73;;;13.23;;
17181;SDS011;8706;48.254;16.422;2022-12-19T22:48:10;15.17;;;13.63;;
17181;SDS011;8706;48.254;16.422;2022-12-19T22:50:42;15.07;;;13.40;;
17181;SDS011;8706;48.254;16.422;2022-12-19T22:53:11;14.77;;;13.17;;
17181;SDS011;8706;48.254;16.422;2022-12-19T22:55:38;15.13;;;13.63;;
17181;SDS011;8706;48.254;16.422;2022-12-19T22:58:05;15.00;;;13.40;;
17181;SDS011;8706;48.254;16.422;2022-12-19T23:00:32;15.77;;;14.13;;
17181;SDS011;8706;48.254;16.422;2022-12-19T23:02:59;16.80;;;14.33;;
17181;SDS011;8706;48.254;16.422;2022-12-19T23:05:27;15.40;;;13.80;;
17181;SDS011;8706;48.254;16.422;2022-12-19T23:07:54;14.50;;;12.90;;
17181;SDS011;8706;48.254;16.422;2022-12-19T23:10:21;15.57;;;13.97;;
17181;SDS011;8706;48.254;16.422;2022-12-19T23:12:48;15.73;;;14.13;;
17181;SDS011;8706;48.254;16.422;2022-12-19T23:15:15;15.20;;;13.60;;
17181;SDS011;8706;48.254;16.422;2022-12-19T23:17:42;16.53;;;14.80;;
17181;SDS011;8706;48.254;16.422;2022-12-19T23:20:09;15.87;;;14.17;;
17181;SDS011;8706;48.254;16.422;2022-12-19T23:22:37;16.07;;;14.37;;
17181;SDS011;8706;48.254;16.422;2022-12-19T23:25:05;16.03;;;14.13;;
17181;SDS011;8706;48.254;16.422;2022-12-19T23:27:33;16.23;;;14.57;;
17181;SDS011;8706;48.254;16.422;2022-12-19T23:30:00;16.03;;;14.37;;
17181;SDS011;8706;48.254;16.422;2022-12-19T23:32:27;16.17;;;14.47;;
17181;SDS011;8706;48.254;16.422;2022-12-19T23:34:53;16.87;;;15.07;;
17181;SDS011;8706;48.254;16.422;2022-12-19T23:37:20;16.57;;;14.80;;
17181;SDS011;8706;48.254;16.422;2022-12-19T23:39:48;16.97;;;15.17;;
17181;SDS011;8706;48.254;16.422;2022-12-19T23:42:15;15.20;;;13.70;;
17181;SDS011;8706;48.254;16.422;2022-12-19T23:44:42;15.93;;;14.23;;
17181;SDS011;8706;48.254;16.422;2022-12-19T23:47:09;16.23;;;14.63;;
17181;SDS011;8706;48.254;16.422;2022-12-19T23:49:36;16.17;;;14.47;;
17181;SDS011;8706;48.254;16.422;2022-12-19T23:52:03;15.37;;;13.87;;
17181;SDS011;8706;48.254;16.422;2022-12-19T23:54:30;15.77;;;14.10;;
17181;SDS011;8706;48.254;16.422;2022-12-19T23:56:58;15.67;;;14.00;;
17181;SDS011;8706;48.254;16.422;2022-12-19T23:59:25;16.70;;;14.53;;
